ADDS METAR Data INFO
IDs: Format: Raw Decoded Include TAF

Data at: 2115 UTC 23 Apr 2018

METAR for:KAUS (Austin/Bergstrom Int, TX, US)
Text:KAUS 232053Z 33004KT 10SM CLR 29/09 A3000 RMK AO2 SLP154 T02890089 58030 $
Temperature: 28.9°C ( 84°F)
Dewpoint: 8.9°C ( 48°F) [RH = 29%]
Pressure (altimeter):30.00 inches Hg (1016.0 mb) [Sea level pressure: 1015.4 mb]
Winds:from the NNW (330 degrees) at 5 MPH (4 knots; 2.1 m/s)
Visibility:10 or more sm (16+ km)
Ceiling:at least 12,000 feet AGL
Clouds:sky clear below 12,000 feet AGL
QC Flag:SOME DATA ABOVE MAY BE INACCURATE!!!"$" is an indication the sensor requires maintenance.